sensor_id;sensor_type;location;lat;lon;timestamp;P1;durP1;ratioP1;P2;durP2;ratioP2
65279;SDS011;51878;55.748;48.742;2024-02-14T00:00:31;0.75;;;0.75;;
65279;SDS011;51878;55.748;48.742;2024-02-14T00:05:37;2.53;;;1.60;;
65279;SDS011;51878;55.748;48.742;2024-02-14T00:10:39;1.33;;;1.15;;
65279;SDS011;51878;55.748;48.742;2024-02-14T00:15:41;1.05;;;1.02;;
65279;SDS011;51878;55.748;48.742;2024-02-14T00:20:43;1.50;;;1.42;;
65279;SDS011;51878;55.748;48.742;2024-02-14T00:25:46;2.08;;;1.70;;
65279;SDS011;51878;55.748;48.742;2024-02-14T00:30:48;1.95;;;1.85;;
65279;SDS011;51878;55.748;48.742;2024-02-14T00:36:10;0.73;;;0.73;;
65279;SDS011;51878;55.748;48.742;2024-02-14T00:41:12;0.95;;;0.77;;
65279;SDS011;51878;55.748;48.742;2024-02-14T00:46:17;0.70;;;0.70;;
65279;SDS011;51878;55.748;48.742;2024-02-14T00:51:20;1.50;;;1.48;;
65279;SDS011;51878;55.748;48.742;2024-02-14T00:56:23;0.70;;;0.70;;
65279;SDS011;51878;55.748;48.742;2024-02-14T01:01:25;0.50;;;0.50;;
65279;SDS011;51878;55.748;48.742;2024-02-14T01:06:27;0.93;;;0.93;;
65279;SDS011;51878;55.748;48.742;2024-02-14T01:11:32;2.75;;;1.73;;
65279;SDS011;51878;55.748;48.742;2024-02-14T01:16:41;2.78;;;2.03;;
65279;SDS011;51878;55.748;48.742;2024-02-14T01:21:44;0.70;;;0.70;;
65279;SDS011;51878;55.748;48.742;2024-02-14T01:26:50;1.55;;;1.45;;
65279;SDS011;51878;55.748;48.742;2024-02-14T01:31:52;1.13;;;1.13;;
65279;SDS011;51878;55.748;48.742;2024-02-14T01:36:54;1.90;;;1.58;;
65279;SDS011;51878;55.748;48.742;2024-02-14T01:41:56;1.52;;;1.42;;
65279;SDS011;51878;55.748;48.742;2024-02-14T01:47:02;1.65;;;1.55;;
65279;SDS011;51878;55.748;48.742;2024-02-14T01:52:05;1.35;;;1.25;;
65279;SDS011;51878;55.748;48.742;2024-02-14T01:57:08;1.20;;;1.10;;
65279;SDS011;51878;55.748;48.742;2024-02-14T02:02:13;1.15;;;1.15;;
65279;SDS011;51878;55.748;48.742;2024-02-14T02:07:15;1.65;;;1.38;;
65279;SDS011;51878;55.748;48.742;2024-02-14T02:12:17;1.73;;;1.33;;
65279;SDS011;51878;55.748;48.742;2024-02-14T02:17:40;1.33;;;0.90;;
65279;SDS011;51878;55.748;48.742;2024-02-14T02:23:02;1.10;;;1.10;;
65279;SDS011;51878;55.748;48.742;2024-02-14T02:28:17;1.80;;;1.67;;
65279;SDS011;51878;55.748;48.742;2024-02-14T02:33:23;0.80;;;0.80;;
65279;SDS011;51878;55.748;48.742;2024-02-14T02:38:26;1.02;;;1.02;;
65279;SDS011;51878;55.748;48.742;2024-02-14T02:43:49;0.88;;;0.88;;
65279;SDS011;51878;55.748;48.742;2024-02-14T02:49:24;1.55;;;1.45;;
65279;SDS011;51878;55.748;48.742;2024-02-14T02:54:32;1.67;;;1.58;;
65279;SDS011;51878;55.748;48.742;2024-02-14T02:59:54;2.53;;;1.70;;
65279;SDS011;51878;55.748;48.742;2024-02-14T03:04:57;5.38;;;1.67;;
65279;SDS011;51878;55.748;48.742;2024-02-14T03:10:20;3.08;;;1.55;;
65279;SDS011;51878;55.748;48.742;2024-02-14T03:15:44;2.55;;;1.70;;
65279;SDS011;51878;55.748;48.742;2024-02-14T03:20:48;1.98;;;1.88;;
65279;SDS011;51878;55.748;48.742;2024-02-14T03:25:51;1.00;;;1.00;;
65279;SDS011;51878;55.748;48.742;2024-02-14T03:30:53;1.75;;;1.65;;
65279;SDS011;51878;55.748;48.742;2024-02-14T03:35:56;2.00;;;1.90;;
65279;SDS011;51878;55.748;48.742;2024-02-14T03:40:58;16.55;;;2.00;;
65279;SDS011;51878;55.748;48.742;2024-02-14T03:46:00;1.10;;;1.10;;
65279;SDS011;51878;55.748;48.742;2024-02-14T03:51:03;7.15;;;1.42;;
65279;SDS011;51878;55.748;48.742;2024-02-14T03:56:06;1.20;;;1.20;;
65279;SDS011;51878;55.748;48.742;2024-02-14T04:01:11;2.45;;;1.15;;
65279;SDS011;51878;55.748;48.742;2024-02-14T04:06:14;4.07;;;2.63;;
65279;SDS011;51878;55.748;48.742;2024-02-14T04:11:16;1.67;;;1.52;;
65279;SDS011;51878;55.748;48.742;2024-02-14T04:16:19;1.77;;;1.67;;
65279;SDS011;51878;55.748;48.742;2024-02-14T04:21:31;1.75;;;1.63;;
65279;SDS011;51878;55.748;48.742;2024-02-14T04:26:33;0.98;;;0.98;;
65279;SDS011;51878;55.748;48.742;2024-02-14T04:31:36;2.20;;;1.42;;
65279;SDS011;51878;55.748;48.742;2024-02-14T04:36:44;2.40;;;2.20;;
65279;SDS011;51878;55.748;48.742;2024-02-14T04:41:46;2.53;;;2.33;;
65279;SDS011;51878;55.748;48.742;2024-02-14T04:46:54;9.10;;;1.45;;
65279;SDS011;51878;55.748;48.742;2024-02-14T04:51:58;1.25;;;1.23;;
65279;SDS011;51878;55.748;48.742;2024-02-14T04:57:00;2.10;;;1.83;;
65279;SDS011;51878;55.748;48.742;2024-02-14T05:02:04;1.52;;;1.48;;
65279;SDS011;51878;55.748;48.742;2024-02-14T05:07:06;1.48;;;1.38;;
65279;SDS011;51878;55.748;48.742;2024-02-14T05:12:09;2.50;;;1.85;;
65279;SDS011;51878;55.748;48.742;2024-02-14T05:17:12;1.55;;;1.45;;
65279;SDS011;51878;55.748;48.742;2024-02-14T05:22:15;4.07;;;3.08;;
65279;SDS011;51878;55.748;48.742;2024-02-14T05:27:17;1.83;;;1.73;;
65279;SDS011;51878;55.748;48.742;2024-02-14T05:32:19;3.63;;;2.50;;
65279;SDS011;51878;55.748;48.742;2024-02-14T05:37:24;2.38;;;2.17;;
65279;SDS011;51878;55.748;48.742;2024-02-14T05:42:29;2.85;;;2.58;;
65279;SDS011;51878;55.748;48.742;2024-02-14T05:47:31;4.20;;;3.35;;
65279;SDS011;51878;55.748;48.742;2024-02-14T05:52:34;10.05;;;3.33;;
65279;SDS011;51878;55.748;48.742;2024-02-14T05:57:37;5.95;;;3.85;;
65279;SDS011;51878;55.748;48.742;2024-02-14T06:02:39;1.67;;;1.58;;
65279;SDS011;51878;55.748;48.742;2024-02-14T06:07:42;8.27;;;2.35;;
65279;SDS011;51878;55.748;48.742;2024-02-14T06:12:46;8.45;;;3.40;;
65279;SDS011;51878;55.748;48.742;2024-02-14T06:17:51;6.05;;;3.08;;
65279;SDS011;51878;55.748;48.742;2024-02-14T06:22:53;5.13;;;2.75;;
65279;SDS011;51878;55.748;48.742;2024-02-14T06:28:02;4.15;;;3.67;;
65279;SDS011;51878;55.748;48.742;2024-02-14T06:33:04;4.95;;;3.10;;
65279;SDS011;51878;55.748;48.742;2024-02-14T06:38:07;4.00;;;3.45;;
65279;SDS011;51878;55.748;48.742;2024-02-14T06:43:09;10.32;;;3.83;;
65279;SDS011;51878;55.748;48.742;2024-02-14T06:48:11;8.32;;;4.10;;
65279;SDS011;51878;55.748;48.742;2024-02-14T06:53:17;7.45;;;2.90;;
65279;SDS011;51878;55.748;48.742;2024-02-14T06:58:19;6.03;;;3.50;;
65279;SDS011;51878;55.748;48.742;2024-02-14T07:03:21;6.50;;;3.15;;
65279;SDS011;51878;55.748;48.742;2024-02-14T07:08:27;8.75;;;3.90;;
65279;SDS011;51878;55.748;48.742;2024-02-14T07:13:30;4.78;;;3.60;;
65279;SDS011;51878;55.748;48.742;2024-02-14T07:18:46;6.85;;;2.58;;
65279;SDS011;51878;55.748;48.742;2024-02-14T07:23:48;5.32;;;3.08;;
65279;SDS011;51878;55.748;48.742;2024-02-14T07:28:51;7.45;;;3.63;;
65279;SDS011;51878;55.748;48.742;2024-02-14T07:33:54;3.35;;;2.25;;
65279;SDS011;51878;55.748;48.742;2024-02-14T07:39:00;4.95;;;3.40;;
65279;SDS011;51878;55.748;48.742;2024-02-14T07:44:05;4.05;;;3.08;;
65279;SDS011;51878;55.748;48.742;2024-02-14T07:49:08;5.10;;;3.42;;
65279;SDS011;51878;55.748;48.742;2024-02-14T07:54:11;5.93;;;3.83;;
65279;SDS011;51878;55.748;48.742;2024-02-14T07:59:14;6.35;;;3.80;;
65279;SDS011;51878;55.748;48.742;2024-02-14T08:04:16;7.28;;;3.83;;
65279;SDS011;51878;55.748;48.742;2024-02-14T08:09:18;5.05;;;4.05;;
65279;SDS011;51878;55.748;48.742;2024-02-14T08:14:21;4.90;;;3.13;;
65279;SDS011;51878;55.748;48.742;2024-02-14T08:19:23;8.38;;;3.97;;
65279;SDS011;51878;55.748;48.742;2024-02-14T08:24:26;7.28;;;4.07;;
65279;SDS011;51878;55.748;48.742;2024-02-14T08:29:30;5.75;;;3.67;;
65279;SDS011;51878;55.748;48.742;2024-02-14T08:34:36;9.15;;;4.03;;
65279;SDS011;51878;55.748;48.742;2024-02-14T08:39:38;7.75;;;3.80;;
65279;SDS011;51878;55.748;48.742;2024-02-14T08:44:40;6.25;;;3.40;;
65279;SDS011;51878;55.748;48.742;2024-02-14T08:49:43;11.80;;;4.70;;
65279;SDS011;51878;55.748;48.742;2024-02-14T08:54:45;6.25;;;3.38;;
65279;SDS011;51878;55.748;48.742;2024-02-14T08:59:55;8.63;;;3.47;;
65279;SDS011;51878;55.748;48.742;2024-02-14T09:04:59;7.03;;;3.92;;
65279;SDS011;51878;55.748;48.742;2024-02-14T09:10:04;7.53;;;4.40;;
65279;SDS011;51878;55.748;48.742;2024-02-14T09:15:08;6.85;;;4.07;;
65279;SDS011;51878;55.748;48.742;2024-02-14T09:20:11;7.22;;;4.53;;
65279;SDS011;51878;55.748;48.742;2024-02-14T09:25:17;6.50;;;4.40;;
65279;SDS011;51878;55.748;48.742;2024-02-14T09:30:19;9.20;;;5.03;;
65279;SDS011;51878;55.748;48.742;2024-02-14T09:35:31;7.95;;;3.97;;
65279;SDS011;51878;55.748;48.742;2024-02-14T09:40:35;7.50;;;4.47;;
65279;SDS011;51878;55.748;48.742;2024-02-14T09:45:38;8.25;;;4.43;;
65279;SDS011;51878;55.748;48.742;2024-02-14T09:50:44;5.70;;;4.10;;
65279;SDS011;51878;55.748;48.742;2024-02-14T09:55:47;10.10;;;4.22;;
65279;SDS011;51878;55.748;48.742;2024-02-14T10:01:01;7.40;;;4.70;;
65279;SDS011;51878;55.748;48.742;2024-02-14T10:06:03;10.35;;;4.35;;
65279;SDS011;51878;55.748;48.742;2024-02-14T10:11:07;7.68;;;4.22;;
65279;SDS011;51878;55.748;48.742;2024-02-14T10:16:10;6.80;;;4.20;;
65279;SDS011;51878;55.748;48.742;2024-02-14T10:21:14;8.52;;;4.50;;
65279;SDS011;51878;55.748;48.742;2024-02-14T10:26:21;10.18;;;4.85;;
65279;SDS011;51878;55.748;48.742;2024-02-14T10:36:46;7.85;;;4.65;;
65279;SDS011;51878;55.748;48.742;2024-02-14T10:41:49;6.10;;;4.00;;
65279;SDS011;51878;55.748;48.742;2024-02-14T10:46:52;6.72;;;4.10;;
65279;SDS011;51878;55.748;48.742;2024-02-14T10:52:00;8.35;;;4.80;;
65279;SDS011;51878;55.748;48.742;2024-02-14T10:57:08;7.35;;;4.47;;
65279;SDS011;51878;55.748;48.742;2024-02-14T11:02:13;6.63;;;4.78;;
65279;SDS011;51878;55.748;48.742;2024-02-14T11:07:23;7.00;;;4.23;;
65279;SDS011;51878;55.748;48.742;2024-02-14T11:12:32;6.53;;;4.43;;
65279;SDS011;51878;55.748;48.742;2024-02-14T11:17:41;6.13;;;3.90;;
65279;SDS011;51878;55.748;48.742;2024-02-14T11:22:54;6.75;;;4.00;;
65279;SDS011;51878;55.748;48.742;2024-02-14T11:27:59;8.50;;;4.70;;
65279;SDS011;51878;55.748;48.742;2024-02-14T11:33:15;7.60;;;4.50;;
65279;SDS011;51878;55.748;48.742;2024-02-14T11:44:05;5.55;;;3.80;;
65279;SDS011;51878;55.748;48.742;2024-02-14T11:49:09;6.20;;;4.15;;
65279;SDS011;51878;55.748;48.742;2024-02-14T11:54:11;7.03;;;4.53;;
65279;SDS011;51878;55.748;48.742;2024-02-14T11:59:14;7.75;;;4.20;;
65279;SDS011;51878;55.748;48.742;2024-02-14T12:04:21;6.55;;;3.75;;
65279;SDS011;51878;55.748;48.742;2024-02-14T12:09:24;5.88;;;3.90;;
65279;SDS011;51878;55.748;48.742;2024-02-14T12:14:30;6.32;;;4.10;;
65279;SDS011;51878;55.748;48.742;2024-02-14T12:19:34;8.13;;;4.32;;
65279;SDS011;51878;55.748;48.742;2024-02-14T12:24:40;8.10;;;4.15;;
65279;SDS011;51878;55.748;48.742;2024-02-14T12:29:45;5.65;;;3.88;;
65279;SDS011;51878;55.748;48.742;2024-02-14T12:34:48;7.63;;;4.25;;
65279;SDS011;51878;55.748;48.742;2024-02-14T12:39:51;6.45;;;3.80;;
65279;SDS011;51878;55.748;48.742;2024-02-14T12:44:55;7.22;;;4.38;;
65279;SDS011;51878;55.748;48.742;2024-02-14T12:49:58;7.75;;;4.18;;
65279;SDS011;51878;55.748;48.742;2024-02-14T12:55:01;6.78;;;4.25;;
65279;SDS011;51878;55.748;48.742;2024-02-14T13:00:04;7.28;;;4.13;;
65279;SDS011;51878;55.748;48.742;2024-02-14T13:05:10;5.68;;;3.70;;
65279;SDS011;51878;55.748;48.742;2024-02-14T13:10:13;7.85;;;4.25;;
65279;SDS011;51878;55.748;48.742;2024-02-14T13:15:19;9.98;;;4.25;;
65279;SDS011;51878;55.748;48.742;2024-02-14T13:20:24;5.15;;;3.55;;
65279;SDS011;51878;55.748;48.742;2024-02-14T13:25:30;6.03;;;3.33;;
65279;SDS011;51878;55.748;48.742;2024-02-14T13:30:40;7.00;;;3.55;;
65279;SDS011;51878;55.748;48.742;2024-02-14T13:35:42;5.22;;;2.92;;
65279;SDS011;51878;55.748;48.742;2024-02-14T13:40:46;6.55;;;3.53;;
65279;SDS011;51878;55.748;48.742;2024-02-14T13:45:48;4.65;;;2.75;;
65279;SDS011;51878;55.748;48.742;2024-02-14T13:50:52;6.75;;;3.58;;
65279;SDS011;51878;55.748;48.742;2024-02-14T13:55:54;5.97;;;3.92;;
65279;SDS011;51878;55.748;48.742;2024-02-14T14:00:57;5.18;;;2.70;;
65279;SDS011;51878;55.748;48.742;2024-02-14T14:06:01;3.78;;;2.47;;
65279;SDS011;51878;55.748;48.742;2024-02-14T14:11:05;3.83;;;2.83;;
65279;SDS011;51878;55.748;48.742;2024-02-14T14:16:09;7.20;;;1.73;;
65279;SDS011;51878;55.748;48.742;2024-02-14T14:21:12;2.95;;;1.75;;
65279;SDS011;51878;55.748;48.742;2024-02-14T14:26:28;1.75;;;1.65;;
65279;SDS011;51878;55.748;48.742;2024-02-14T14:31:46;2.28;;;2.05;;
65279;SDS011;51878;55.748;48.742;2024-02-14T14:36:49;1.88;;;1.77;;
65279;SDS011;51878;55.748;48.742;2024-02-14T14:41:59;1.45;;;1.35;;
65279;SDS011;51878;55.748;48.742;2024-02-14T14:47:08;1.20;;;1.17;;
65279;SDS011;51878;55.748;48.742;2024-02-14T14:52:11;2.58;;;2.17;;
65279;SDS011;51878;55.748;48.742;2024-02-14T14:57:13;2.45;;;1.70;;
65279;SDS011;51878;55.748;48.742;2024-02-14T15:02:20;2.50;;;1.23;;
65279;SDS011;51878;55.748;48.742;2024-02-14T15:07:37;2.35;;;1.75;;
65279;SDS011;51878;55.748;48.742;2024-02-14T15:12:40;1.48;;;1.35;;
65279;SDS011;51878;55.748;48.742;2024-02-14T15:17:42;1.48;;;1.38;;
65279;SDS011;51878;55.748;48.742;2024-02-14T15:22:47;2.03;;;1.15;;
65279;SDS011;51878;55.748;48.742;2024-02-14T15:27:49;1.67;;;1.42;;
65279;SDS011;51878;55.748;48.742;2024-02-14T15:32:57;1.77;;;1.67;;
65279;SDS011;51878;55.748;48.742;2024-02-14T15:38:19;1.10;;;1.00;;
65279;SDS011;51878;55.748;48.742;2024-02-14T15:43:22;1.25;;;1.15;;
65279;SDS011;51878;55.748;48.742;2024-02-14T15:48:26;0.93;;;0.93;;
65279;SDS011;51878;55.748;48.742;2024-02-14T15:53:31;1.90;;;1.80;;
65279;SDS011;51878;55.748;48.742;2024-02-14T15:58:34;0.63;;;0.63;;
65279;SDS011;51878;55.748;48.742;2024-02-14T16:03:36;0.80;;;0.80;;
65279;SDS011;51878;55.748;48.742;2024-02-14T16:08:38;0.90;;;0.90;;
65279;SDS011;51878;55.748;48.742;2024-02-14T16:13:42;3.92;;;0.75;;
65279;SDS011;51878;55.748;48.742;2024-02-14T16:18:45;1.75;;;1.05;;
65279;SDS011;51878;55.748;48.742;2024-02-14T16:23:47;1.00;;;1.00;;
65279;SDS011;51878;55.748;48.742;2024-02-14T16:28:50;0.70;;;0.70;;
65279;SDS011;51878;55.748;48.742;2024-02-14T16:33:52;0.63;;;0.63;;
65279;SDS011;51878;55.748;48.742;2024-02-14T16:38:55;9.00;;;2.55;;
65279;SDS011;51878;55.748;48.742;2024-02-14T16:43:58;0.70;;;0.70;;
65279;SDS011;51878;55.748;48.742;2024-02-14T16:49:03;0.82;;;0.82;;
65279;SDS011;51878;55.748;48.742;2024-02-14T16:54:05;1.85;;;1.75;;
65279;SDS011;51878;55.748;48.742;2024-02-14T16:59:08;1.27;;;1.15;;
65279;SDS011;51878;55.748;48.742;2024-02-14T17:04:10;1.00;;;0.95;;
65279;SDS011;51878;55.748;48.742;2024-02-14T17:09:12;2.10;;;1.35;;
65279;SDS011;51878;55.748;48.742;2024-02-14T17:14:15;0.90;;;0.90;;
65279;SDS011;51878;55.748;48.742;2024-02-14T17:19:17;1.00;;;1.00;;
65279;SDS011;51878;55.748;48.742;2024-02-14T17:24:21;1.17;;;1.17;;
65279;SDS011;51878;55.748;48.742;2024-02-14T17:29:26;1.40;;;1.40;;
65279;SDS011;51878;55.748;48.742;2024-02-14T17:34:28;1.13;;;1.13;;
65279;SDS011;51878;55.748;48.742;2024-02-14T17:39:35;1.02;;;1.02;;
65279;SDS011;51878;55.748;48.742;2024-02-14T17:44:37;0.90;;;0.90;;
65279;SDS011;51878;55.748;48.742;2024-02-14T17:49:40;1.52;;;1.42;;
65279;SDS011;51878;55.748;48.742;2024-02-14T17:54:42;1.13;;;1.02;;
65279;SDS011;51878;55.748;48.742;2024-02-14T17:59:56;1.13;;;1.00;;
65279;SDS011;51878;55.748;48.742;2024-02-14T18:05:09;0.60;;;0.60;;
65279;SDS011;51878;55.748;48.742;2024-02-14T18:10:11;1.35;;;1.00;;
65279;SDS011;51878;55.748;48.742;2024-02-14T18:15:14;0.70;;;0.70;;
65279;SDS011;51878;55.748;48.742;2024-02-14T18:20:35;1.05;;;1.05;;
65279;SDS011;51878;55.748;48.742;2024-02-14T18:25:48;1.63;;;1.52;;
65279;SDS011;51878;55.748;48.742;2024-02-14T18:30:50;0.70;;;0.70;;
65279;SDS011;51878;55.748;48.742;2024-02-14T18:36:05;1.70;;;1.60;;
65279;SDS011;51878;55.748;48.742;2024-02-14T18:41:14;2.10;;;1.83;;
65279;SDS011;51878;55.748;48.742;2024-02-14T18:46:21;2.53;;;1.92;;
65279;SDS011;51878;55.748;48.742;2024-02-14T18:51:26;0.65;;;0.65;;
65279;SDS011;51878;55.748;48.742;2024-02-14T18:56:29;1.08;;;1.08;;
65279;SDS011;51878;55.748;48.742;2024-02-14T19:01:31;0.98;;;0.98;;
65279;SDS011;51878;55.748;48.742;2024-02-14T19:06:34;0.63;;;0.63;;
65279;SDS011;51878;55.748;48.742;2024-02-14T19:11:38;0.80;;;0.80;;
65279;SDS011;51878;55.748;48.742;2024-02-14T19:16:41;1.38;;;1.38;;
65279;SDS011;51878;55.748;48.742;2024-02-14T19:21:44;1.85;;;1.75;;
65279;SDS011;51878;55.748;48.742;2024-02-14T19:26:50;1.00;;;1.00;;
65279;SDS011;51878;55.748;48.742;2024-02-14T19:31:55;0.80;;;0.80;;
65279;SDS011;51878;55.748;48.742;2024-02-14T19:36:58;0.90;;;0.90;;
65279;SDS011;51878;55.748;48.742;2024-02-14T19:42:00;1.27;;;1.17;;
65279;SDS011;51878;55.748;48.742;2024-02-14T19:47:03;0.90;;;0.90;;
65279;SDS011;51878;55.748;48.742;2024-02-14T19:52:06;0.70;;;0.70;;
65279;SDS011;51878;55.748;48.742;2024-02-14T19:57:09;3.42;;;2.22;;
65279;SDS011;51878;55.748;48.742;2024-02-14T20:02:12;0.90;;;0.90;;
65279;SDS011;51878;55.748;48.742;2024-02-14T20:07:15;2.35;;;1.90;;
65279;SDS011;51878;55.748;48.742;2024-02-14T20:12:24;1.42;;;1.42;;
65279;SDS011;51878;55.748;48.742;2024-02-14T20:17:35;5.07;;;1.70;;
65279;SDS011;51878;55.748;48.742;2024-02-14T20:22:37;1.27;;;1.27;;
65279;SDS011;51878;55.748;48.742;2024-02-14T20:27:40;1.75;;;1.25;;
65279;SDS011;51878;55.748;48.742;2024-02-14T20:32:43;3.85;;;3.05;;
65279;SDS011;51878;55.748;48.742;2024-02-14T20:37:48;0.80;;;0.80;;
65279;SDS011;51878;55.748;48.742;2024-02-14T20:42:51;0.95;;;0.93;;
65279;SDS011;51878;55.748;48.742;2024-02-14T20:47:53;0.70;;;0.70;;
65279;SDS011;51878;55.748;48.742;2024-02-14T20:52:56;0.60;;;0.60;;
65279;SDS011;51878;55.748;48.742;2024-02-14T20:57:58;0.50;;;0.50;;
65279;SDS011;51878;55.748;48.742;2024-02-14T21:03:02;0.90;;;0.90;;
65279;SDS011;51878;55.748;48.742;2024-02-14T21:08:05;0.65;;;0.65;;
65279;SDS011;51878;55.748;48.742;2024-02-14T21:13:07;0.70;;;0.70;;
65279;SDS011;51878;55.748;48.742;2024-02-14T21:18:10;0.63;;;0.63;;
65279;SDS011;51878;55.748;48.742;2024-02-14T21:23:14;1.23;;;1.23;;
65279;SDS011;51878;55.748;48.742;2024-02-14T21:28:17;1.20;;;1.10;;
65279;SDS011;51878;55.748;48.742;2024-02-14T21:33:20;1.08;;;1.08;;
65279;SDS011;51878;55.748;48.742;2024-02-14T21:38:26;0.80;;;0.80;;
65279;SDS011;51878;55.748;48.742;2024-02-14T21:43:28;0.63;;;0.63;;
65279;SDS011;51878;55.748;48.742;2024-02-14T21:48:31;7.65;;;2.10;;
65279;SDS011;51878;55.748;48.742;2024-02-14T21:53:33;0.38;;;0.38;;
65279;SDS011;51878;55.748;48.742;2024-02-14T21:58:35;1.67;;;0.80;;
65279;SDS011;51878;55.748;48.742;2024-02-14T22:03:38;0.57;;;0.57;;
65279;SDS011;51878;55.748;48.742;2024-02-14T22:08:40;1.40;;;1.05;;
65279;SDS011;51878;55.748;48.742;2024-02-14T22:13:42;2.05;;;1.45;;
65279;SDS011;51878;55.748;48.742;2024-02-14T22:18:45;1.00;;;0.98;;
65279;SDS011;51878;55.748;48.742;2024-02-14T22:23:49;0.70;;;0.70;;
65279;SDS011;51878;55.748;48.742;2024-02-14T22:28:51;1.30;;;1.20;;
65279;SDS011;51878;55.748;48.742;2024-02-14T22:33:54;1.00;;;0.52;;
65279;SDS011;51878;55.748;48.742;2024-02-14T22:38:57;0.60;;;0.60;;
65279;SDS011;51878;55.748;48.742;2024-02-14T22:44:00;1.85;;;1.45;;
65279;SDS011;51878;55.748;48.742;2024-02-14T22:49:03;0.30;;;0.30;;
65279;SDS011;51878;55.748;48.742;2024-02-14T22:54:06;0.40;;;0.40;;
65279;SDS011;51878;55.748;48.742;2024-02-14T22:59:09;0.57;;;0.57;;
65279;SDS011;51878;55.748;48.742;2024-02-14T23:04:11;4.28;;;2.53;;
65279;SDS011;51878;55.748;48.742;2024-02-14T23:09:13;0.55;;;0.55;;
65279;SDS011;51878;55.748;48.742;2024-02-14T23:14:16;0.88;;;0.88;;
65279;SDS011;51878;55.748;48.742;2024-02-14T23:19:21;0.65;;;0.60;;
65279;SDS011;51878;55.748;48.742;2024-02-14T23:24:23;4.10;;;1.23;;
65279;SDS011;51878;55.748;48.742;2024-02-14T23:29:26;0.30;;;0.30;;
65279;SDS011;51878;55.748;48.742;2024-02-14T23:34:28;0.50;;;0.50;;
65279;SDS011;51878;55.748;48.742;2024-02-14T23:39:30;0.70;;;0.70;;
65279;SDS011;51878;55.748;48.742;2024-02-14T23:44:33;1.00;;;0.95;;
65279;SDS011;51878;55.748;48.742;2024-02-14T23:49:35;1.77;;;1.67;;
65279;SDS011;51878;55.748;48.742;2024-02-14T23:54:39;1.08;;;0.75;;
65279;SDS011;51878;55.748;48.742;2024-02-14T23:59:42;1.38;;;0.75;;
